createdAt,value
2023-01-17T00:02:27.698Z,98110.31
2023-01-17T00:05:59.063Z,98106.98
2023-01-17T00:09:41.464Z,98102.23
2023-01-17T00:13:33.474Z,98095.58
2023-01-17T00:23:39.372Z,98086.71
2023-01-17T00:27:32.558Z,98073.66
2023-01-17T00:31:41.991Z,98068.70
2023-01-17T00:35:51.045Z,98064.95
2023-01-17T00:40:00.100Z,98056.11
2023-01-17T00:44:27.532Z,98044.41
2023-01-17T00:48:54.907Z,98012.27
2023-01-17T00:53:09.952Z,97999.60
2023-01-17T00:57:38.001Z,97975.02
2023-01-17T01:01:46.938Z,97999.09
2023-01-17T01:05:38.432Z,98011.75
2023-01-17T01:10:05.491Z,98020.44
2023-01-17T01:14:33.456Z,98025.52
2023-01-17T01:18:47.724Z,98014.11
2023-01-17T01:23:03.119Z,98012.88
2023-01-17T01:27:10.458Z,98014.14
2023-01-17T01:31:40.843Z,98005.16
2023-01-17T01:36:10.101Z,97995.15
2023-01-17T01:40:35.383Z,97992.80
2023-01-17T01:45:22.785Z,97990.27
2023-01-17T01:49:37.143Z,97988.63
2023-01-17T01:54:06.405Z,97978.71
2023-01-17T01:58:36.068Z,97966.59
2023-01-17T02:03:05.982Z,97969.95
2023-01-17T02:07:43.910Z,97961.17
2023-01-17T02:12:13.026Z,97958.55
2023-01-17T02:16:44.772Z,97941.09
2023-01-17T02:21:29.247Z,97937.61
2023-01-17T02:26:04.315Z,97925.33
2023-01-17T02:30:27.444Z,97921.38
2023-01-17T02:35:05.365Z,97920.27
2023-01-17T02:39:17.800Z,97913.44
2023-01-17T02:43:49.717Z,97925.58
2023-01-17T02:48:22.161Z,97942.58
2023-01-17T02:52:41.340Z,97938.58
2023-01-17T02:57:13.000Z,97923.92
2023-01-17T03:01:43.703Z,97917.19
2023-01-17T03:06:21.687Z,97917.27
2023-01-17T03:10:51.400Z,97921.83
2023-01-17T03:15:20.897Z,97921.55
2023-01-17T03:19:17.184Z,97917.19
2023-01-17T03:23:26.762Z,97909.51
2023-01-17T03:27:56.011Z,97907.98
2023-01-17T03:32:05.601Z,97903.06
2023-01-17T03:36:34.846Z,97893.65
2023-01-17T03:40:46.574Z,97899.23
2023-01-17T03:45:15.486Z,97901.70
2023-01-17T03:49:46.101Z,97899.52
2023-01-17T03:53:55.099Z,97901.84
2023-01-17T03:58:06.375Z,97895.21
2023-01-17T04:02:35.861Z,97900.17
2023-01-17T04:07:04.960Z,97894.08
2023-01-17T04:11:15.394Z,97887.02
2023-01-17T04:15:45.056Z,97885.29
2023-01-17T04:20:14.412Z,97878.86
2023-01-17T04:24:23.657Z,97876.33
2023-01-17T04:28:55.308Z,97877.69
2023-01-17T04:33:12.559Z,97881.02
2023-01-17T04:37:41.657Z,97881.45
2023-01-17T04:42:11.114Z,97873.81
2023-01-17T04:46:22.146Z,97872.51
2023-01-17T04:50:35.117Z,97876.30
2023-01-17T04:54:48.214Z,97867.42
2023-01-17T04:59:17.294Z,97872.80
2023-01-17T05:03:46.636Z,97877.84
2023-01-17T05:07:56.537Z,97882.26
2023-01-17T05:11:47.567Z,97883.91
2023-01-17T05:16:16.720Z,97895.89
2023-01-17T05:20:46.151Z,97902.45
2023-01-17T05:25:15.550Z,97900.59
2023-01-17T05:29:24.488Z,97900.73
2023-01-17T05:33:35.075Z,97901.06
2023-01-17T05:37:44.720Z,97902.89
2023-01-17T05:42:14.499Z,97909.83
2023-01-17T05:46:41.792Z,97912.61
2023-01-17T05:51:12.236Z,97909.30
2023-01-17T05:55:29.897Z,97910.49
2023-01-17T06:00:00.211Z,97911.99
2023-01-17T06:04:10.176Z,97919.29
2023-01-17T06:08:36.361Z,97921.84
2023-01-17T06:13:06.150Z,97925.77
2023-01-17T06:17:36.742Z,97923.09
2023-01-17T06:22:02.454Z,97924.77
2023-01-17T06:26:32.610Z,97921.67
2023-01-17T06:30:53.473Z,97927.88
2023-01-17T06:35:23.489Z,97924.98
2023-01-17T06:50:04.592Z,97928.55
2023-01-17T06:54:18.004Z,97936.48
2023-01-17T06:58:48.739Z,97937.48
2023-01-17T07:02:58.278Z,97937.67
2023-01-17T07:07:08.151Z,97939.55
2023-01-17T07:11:40.170Z,97946.80
2023-01-17T07:16:09.835Z,97952.42
2023-01-17T07:20:39.484Z,97959.74
2023-01-17T07:25:08.648Z,97961.92
2023-01-17T07:29:39.126Z,97965.89
2023-01-17T07:34:09.818Z,97969.85
2023-01-17T07:38:40.247Z,97967.65
2023-01-17T07:42:50.580Z,97973.02
2023-01-17T07:47:19.854Z,97977.14
2023-01-17T07:51:31.415Z,97986.91
2023-01-17T07:55:41.578Z,97993.52
2023-01-17T07:59:51.895Z,97997.16
2023-01-17T08:04:16.337Z,97998.02
2023-01-17T08:08:46.042Z,98007.16
2023-01-17T08:13:15.215Z,98001.84
2023-01-17T08:17:46.946Z,98007.86
2023-01-17T08:22:16.454Z,98007.52
2023-01-17T08:26:45.740Z,98009.40
2023-01-17T08:31:15.204Z,98013.33
2023-01-17T08:35:43.990Z,98020.56
2023-01-17T08:40:12.996Z,98026.42
2023-01-17T08:44:42.231Z,98031.95
2023-01-17T08:49:07.864Z,98032.86
2023-01-17T08:53:39.567Z,98039.75
2023-01-17T08:58:08.472Z,98044.15
2023-01-17T09:02:37.813Z,98052.50
2023-01-17T09:07:07.150Z,98053.30
2023-01-17T09:11:36.341Z,98068.25
2023-01-17T09:16:05.456Z,98076.83
2023-01-17T09:22:24.253Z,98078.33
2023-01-17T09:25:43.154Z,98081.48
2023-01-17T09:29:26.044Z,98085.14
2023-01-17T09:33:02.936Z,98092.89
2023-01-17T09:36:52.611Z,98097.02
2023-01-17T09:40:31.432Z,98095.88
2023-01-17T09:44:21.029Z,98101.67
2023-01-17T09:48:17.007Z,98101.28
2023-01-17T09:52:09.751Z,98112.59
2023-01-17T09:55:48.709Z,98112.88
2023-01-17T10:00:02.356Z,98111.54
2023-01-17T10:04:10.605Z,98101.13
2023-01-17T10:08:12.034Z,98103.40
2023-01-17T10:12:12.930Z,98107.50
2023-01-17T10:16:04.971Z,98110.61
2023-01-17T10:20:02.957Z,98112.63
2023-01-17T10:24:13.655Z,98110.52
2023-01-17T10:28:02.826Z,98107.67
2023-01-17T10:31:51.975Z,98107.51
2023-01-17T10:35:45.881Z,98112.98
2023-01-17T10:39:35.226Z,98117.89
2023-01-17T10:43:30.336Z,98121.31
2023-01-17T10:47:18.078Z,98123.06
2023-01-17T10:51:07.221Z,98125.02
2023-01-17T10:55:14.393Z,98125.69
2023-01-17T10:59:04.707Z,98121.09
2023-01-17T11:02:48.336Z,98121.49
2023-01-17T11:06:58.311Z,98125.98
2023-01-17T11:10:47.977Z,98125.61
2023-01-17T11:14:37.326Z,98123.17
2023-01-17T11:18:27.132Z,98124.40
2023-01-17T11:22:16.790Z,98128.43
2023-01-17T11:26:07.580Z,98129.00
2023-01-17T11:30:15.272Z,98128.64
2023-01-17T11:34:07.235Z,98136.35
2023-01-17T11:37:58.847Z,98131.23
2023-01-17T11:41:49.012Z,98131.20
2023-01-17T11:45:37.945Z,98127.39
2023-01-17T11:49:27.133Z,98125.59
2023-01-17T11:53:25.644Z,98125.42
2023-01-17T11:57:21.196Z,98128.48
2023-01-17T12:01:13.748Z,98128.33
2023-01-17T12:05:10.013Z,98124.48
2023-01-17T12:09:04.328Z,98128.27
2023-01-17T12:12:50.304Z,98129.88
2023-01-17T12:16:57.460Z,98139.40
2023-01-17T12:20:48.637Z,98140.37
2023-01-17T12:24:55.370Z,98143.56
2023-01-17T12:29:00.213Z,98141.78
2023-01-17T12:33:08.350Z,98145.45
2023-01-17T12:36:56.192Z,98138.02
2023-01-17T12:40:48.459Z,98133.04
2023-01-17T12:44:43.457Z,98123.17
2023-01-17T12:48:52.122Z,98122.92
2023-01-17T12:52:45.420Z,98136.86
2023-01-17T12:56:48.879Z,98141.61
2023-01-17T13:00:51.105Z,98136.98
2023-01-17T13:04:59.168Z,98145.86
2023-01-17T13:08:59.361Z,98158.17
2023-01-17T13:12:53.299Z,98165.83
2023-01-17T13:16:43.106Z,98174.80
2023-01-17T13:20:51.631Z,98178.77
2023-01-17T13:25:08.037Z,98174.80
2023-01-17T13:29:23.894Z,98183.15
2023-01-17T13:33:21.375Z,98193.13
2023-01-17T13:37:17.608Z,98197.73
2023-01-17T13:41:10.129Z,98207.95
2023-01-17T13:44:59.654Z,98218.28
2023-01-17T13:48:55.065Z,98230.02
2023-01-17T13:53:00.958Z,98237.69
2023-01-17T13:57:00.584Z,98237.94
2023-01-17T14:00:52.941Z,98248.85
2023-01-17T14:04:51.049Z,98259.11
2023-01-17T14:08:41.301Z,98260.61
2023-01-17T14:12:41.510Z,98260.23
2023-01-17T14:16:31.581Z,98263.88
2023-01-17T14:20:25.077Z,98272.45
2023-01-17T14:24:27.385Z,98280.90
2023-01-17T14:28:19.379Z,98288.77
2023-01-17T14:32:09.261Z,98301.06
2023-01-17T14:36:22.650Z,98305.27
2023-01-17T14:40:25.249Z,98308.35
2023-01-17T14:44:14.656Z,98309.87
2023-01-17T14:48:09.212Z,98322.27
2023-01-17T14:52:20.297Z,98332.45
2023-01-17T14:56:19.984Z,98338.48
2023-01-17T15:00:00.953Z,98350.53
2023-01-17T15:03:54.356Z,98357.68
2023-01-17T15:07:48.903Z,98363.67
2023-01-17T15:11:40.123Z,98372.40
2023-01-17T15:15:30.254Z,98382.73
2023-01-17T15:19:37.447Z,98388.63
2023-01-17T15:23:27.931Z,98397.50
2023-01-17T15:27:18.029Z,98398.18
2023-01-17T15:31:08.921Z,98396.23
2023-01-17T15:34:58.016Z,98403.11
2023-01-17T15:38:48.905Z,98403.71
2023-01-17T15:42:40.698Z,98413.48
2023-01-17T15:46:34.282Z,98423.83
2023-01-17T15:50:25.730Z,98434.02
2023-01-17T15:54:15.707Z,98435.96
2023-01-17T15:58:10.263Z,98440.33
2023-01-17T16:01:56.758Z,98448.92
2023-01-17T16:06:04.795Z,98452.59
2023-01-17T16:10:01.843Z,98457.61
2023-01-17T16:13:51.217Z,98455.92
2023-01-17T16:17:41.085Z,98454.38
2023-01-17T16:21:20.404Z,98456.79
2023-01-17T16:25:10.640Z,98464.12
2023-01-17T16:28:45.436Z,98468.85
2023-01-17T16:32:36.452Z,98468.92
2023-01-17T16:36:26.365Z,98469.05
2023-01-17T16:40:16.420Z,98467.90
2023-01-17T16:44:06.639Z,98470.98
2023-01-17T16:47:54.910Z,98475.95
2023-01-17T16:51:39.875Z,98478.66
2023-01-17T16:55:29.120Z,98480.98
2023-01-17T16:59:04.496Z,98478.12
2023-01-17T17:02:55.977Z,98472.34
2023-01-17T17:06:47.355Z,98465.02
2023-01-17T17:10:26.710Z,98465.07
2023-01-17T17:14:08.294Z,98461.03
2023-01-17T17:17:57.716Z,98464.32
2023-01-17T17:21:46.914Z,98468.14
2023-01-17T17:25:04.479Z,98462.33
2023-01-17T17:28:54.076Z,98466.70
2023-01-17T17:32:43.576Z,98466.21
2023-01-17T17:36:19.602Z,98474.96
2023-01-17T17:40:09.066Z,98482.88
2023-01-17T17:43:51.515Z,98494.41
2023-01-17T17:47:04.655Z,98502.88
2023-01-17T17:50:46.554Z,98502.34
2023-01-17T17:54:31.280Z,98510.33
2023-01-17T17:58:04.395Z,98509.90
2023-01-17T18:01:53.904Z,98504.49
2023-01-17T18:05:43.831Z,98495.94
2023-01-17T18:09:31.822Z,98498.96
2023-01-17T18:13:04.246Z,98504.03
2023-01-17T18:16:53.643Z,98504.48
2023-01-17T18:20:15.048Z,98506.98
2023-01-17T18:23:57.983Z,98512.11
2023-01-17T18:27:32.729Z,98523.77
2023-01-17T18:31:01.192Z,98529.50
2023-01-17T18:34:50.961Z,98532.99
2023-01-17T18:38:40.919Z,98540.52
2023-01-17T18:42:23.237Z,98552.59
2023-01-17T18:46:17.663Z,98555.08
2023-01-17T18:50:07.964Z,98561.46
2023-01-17T18:53:54.357Z,98563.97
2023-01-17T18:57:24.336Z,98567.82
2023-01-17T19:01:15.358Z,98566.42
2023-01-17T19:05:05.858Z,98568.72
2023-01-17T19:08:16.100Z,98570.98
2023-01-17T19:11:58.206Z,98572.55
2023-01-17T19:15:29.227Z,98575.50
2023-01-17T19:18:59.820Z,98582.48
2023-01-17T19:22:49.665Z,98589.85
2023-01-17T19:26:27.657Z,98590.89
2023-01-17T19:30:22.899Z,98585.27
2023-01-17T19:45:15.824Z,98586.52
2023-01-17T19:49:46.533Z,98588.94
2023-01-17T19:54:16.426Z,98589.73
2023-01-17T19:58:46.711Z,98588.80
2023-01-17T20:03:16.395Z,98592.24
2023-01-17T20:07:46.845Z,98596.49
2023-01-17T20:12:17.625Z,98600.36
2023-01-17T20:16:52.427Z,98605.77
2023-01-17T20:21:25.819Z,98609.25
2023-01-17T20:26:05.435Z,98607.01
2023-01-17T20:30:46.689Z,98608.92
2023-01-17T20:35:25.435Z,98621.79
2023-01-17T20:40:02.642Z,98626.67
2023-01-17T20:44:36.866Z,98638.33
2023-01-17T20:49:09.305Z,98638.59
2023-01-17T20:53:40.033Z,98649.74
2023-01-17T20:58:09.754Z,98656.00
2023-01-17T21:02:39.557Z,98657.40
2023-01-17T21:07:09.421Z,98656.21
2023-01-17T21:11:39.973Z,98659.34
2023-01-17T21:16:10.419Z,98665.65
2023-01-17T21:20:40.745Z,98667.11
2023-01-17T21:25:11.612Z,98674.75
2023-01-17T21:29:41.884Z,98674.95
2023-01-17T21:34:11.485Z,98690.41
2023-01-17T21:38:42.360Z,98704.60
2023-01-17T21:43:12.497Z,98702.99
2023-01-17T21:47:42.182Z,98708.52
2023-01-17T21:52:16.578Z,98714.15
2023-01-17T21:56:44.709Z,98712.73
2023-01-17T22:01:14.609Z,98707.77
2023-01-17T22:05:44.329Z,98712.48
2023-01-17T22:10:13.318Z,98704.08
2023-01-17T22:14:42.890Z,98693.77
2023-01-17T22:19:12.106Z,98684.09
2023-01-17T22:23:41.936Z,98681.21
2023-01-17T22:28:11.114Z,98672.13
2023-01-17T22:32:40.368Z,98652.56
2023-01-17T22:37:10.297Z,98653.89
2023-01-17T22:41:45.682Z,98646.32
2023-01-17T22:46:15.040Z,98642.46
2023-01-17T22:50:44.305Z,98663.02
2023-01-17T22:55:13.838Z,98653.85
2023-01-17T22:59:43.321Z,98644.82
2023-01-17T23:04:12.830Z,98642.72
2023-01-17T23:08:42.256Z,98634.20
2023-01-17T23:13:11.633Z,98643.21
2023-01-17T23:17:39.331Z,98644.27
2023-01-17T23:22:06.666Z,98655.13
2023-01-17T23:26:35.669Z,98643.55
2023-01-17T23:31:07.679Z,98637.45
2023-01-17T23:35:41.208Z,98625.28
2023-01-17T23:40:06.752Z,98619.95
2023-01-17T23:44:36.068Z,98633.04
2023-01-17T23:49:05.217Z,98625.04
2023-01-17T23:53:33.947Z,98617.81
2023-01-17T23:58:02.911Z,98611.14
